Time;durP1;ratioP1;P1;durP2;ratioP2;P2;SDS_P1;SDS_P2;PMS_P1;PMS_P2;Temp;Humidity;BMP_temperature;BMP_pressure;BME280_temperature;BME280_humidity;BME280_pressure;Samples;Min_cycle;Max_cycle;Signal;HPM_P1;HPM_P2
2022/09/17 00:01:25;;;;;;;4.80;4.30;;;;;;;24.81;50.25;94256.41;6160119;28;103374;-78
2022/09/17 00:04:29;;;;;;;7.67;4.40;;;;;;;24.83;49.64;94246.13;6164040;28;103439;-77
2022/09/17 00:07:33;;;;;;;5.23;4.70;;;;;;;24.77;50.22;94250.19;6163310;28;104161;-77
2022/09/17 00:10:41;;;;;;;4.43;3.50;;;;;;;24.73;50.10;94247.41;6157479;28;105178;-78
2022/09/17 00:13:44;;;;;;;6.87;4.60;;;;;;;24.77;50.10;94240.25;6163750;28;104085;-77
2022/09/17 00:16:49;;;;;;;4.57;3.83;;;;;;;24.73;50.40;94233.25;6163348;28;103424;-76
2022/09/17 00:19:52;;;;;;;5.57;3.63;;;;;;;24.67;50.32;94229.22;6162977;28;102799;-76
2022/09/17 00:22:55;;;;;;;4.67;3.13;;;;;;;24.66;50.17;94228.44;6154908;28;103116;-76
2022/09/17 00:25:59;;;;;;;6.90;3.97;;;;;;;24.67;49.87;94227.34;6163167;28;103431;-76
2022/09/17 00:29:04;;;;;;;4.07;3.20;;;;;;;24.62;50.26;94226.81;6163693;28;105321;-76
2022/09/17 00:32:08;;;;;;;7.70;3.20;;;;;;;24.65;50.37;94220.78;6162722;28;103092;-77
2022/09/17 00:35:11;;;;;;;5.07;3.47;;;;;;;24.69;50.28;94219.78;6157039;28;103497;-77
2022/09/17 00:38:14;;;;;;;5.53;3.43;;;;;;;24.74;49.92;94219.53;6162835;28;104133;-77
2022/09/17 00:41:20;;;;;;;4.63;3.47;;;;;;;24.76;49.67;94216.53;6162738;28;103380;-76
2022/09/17 00:44:44;;;;;;;4.30;3.57;;;;;;;24.77;49.45;94215.41;6163833;28;102935;-77
2022/09/17 00:47:59;;;;;;;5.30;3.13;;;;;;;24.81;49.70;94218.94;6166848;28;103603;-78
2022/09/17 00:51:03;;;;;;;5.63;3.30;;;;;;;24.83;49.81;94222.03;6167040;28;105336;-78
2022/09/17 00:54:09;;;;;;;3.50;3.10;;;;;;;24.84;50.00;94228.16;6165419;28;105877;-76
2022/09/17 00:57:14;;;;;;;3.30;3.00;;;;;;;24.86;49.77;94242.75;6158994;28;103405;-76
2022/09/17 01:00:18;;;;;;;4.33;3.40;;;;;;;24.87;49.63;94230.97;6165935;28;103393;-78
2022/09/17 01:03:21;;;;;;;6.93;3.40;;;;;;;24.85;49.29;94261.84;6166850;28;103577;-79
2022/09/17 01:06:32;;;;;;;3.73;3.30;;;;;;;24.85;49.87;94235.84;6165249;28;103048;-79
2022/09/17 01:09:44;;;;;;;4.00;3.43;;;;;;;24.88;49.68;94278.00;6160167;28;103614;-79
2022/09/17 01:13:05;;;;;;;4.70;3.70;;;;;;;24.84;50.31;94214.78;6166057;28;103823;-77
2022/09/17 01:16:17;;;;;;;4.30;3.90;;;;;;;24.82;49.94;94235.78;6142371;28;103279;-78
2022/09/17 01:19:42;;;;;;;3.53;3.23;;;;;;;24.77;50.30;94212.72;6143404;28;104053;-79
2022/09/17 01:23:00;;;;;;;5.77;3.43;;;;;;;24.81;49.96;94215.47;6166176;28;103748;-77
2022/09/17 01:26:25;;;;;;;6.37;4.30;;;;;;;24.70;50.48;94228.59;6164788;28;103153;-79
2022/09/17 01:29:52;;;;;;;4.60;4.00;;;;;;;24.62;50.19;94226.81;6162824;28;104350;-77
2022/09/17 01:33:01;;;;;;;4.47;3.73;;;;;;;24.56;49.98;94222.84;6159399;28;103636;-78
2022/09/17 01:36:17;;;;;;;4.93;3.90;;;;;;;24.60;50.14;94234.41;6163821;28;103289;-78
2022/09/17 01:39:30;;;;;;;5.17;3.53;;;;;;;24.65;49.74;94226.13;6142890;28;104021;-79
2022/09/17 01:42:38;;;;;;;5.77;4.23;;;;;;;24.64;49.54;94232.59;6158890;28;103386;-78
2022/09/17 01:45:48;;;;;;;5.80;4.37;;;;;;;24.63;49.87;94221.13;6165553;28;104503;-76
2022/09/17 01:48:59;;;;;;;7.73;3.90;;;;;;;24.64;49.73;94229.91;6164580;28;103452;-79
2022/09/17 01:52:03;;;;;;;5.70;3.30;;;;;;;24.50;50.00;94208.91;6165940;28;103076;-76
2022/09/17 01:55:10;;;;;;;6.47;3.30;;;;;;;24.39;49.95;94184.56;6158217;28;103435;-78
2022/09/17 01:58:18;;;;;;;4.67;3.90;;;;;;;24.35;49.86;94172.19;6165773;28;103623;-78
2022/09/17 02:01:24;;;;;;;5.90;3.90;;;;;;;24.41;49.84;94155.59;6165525;28;104539;-80
2022/09/17 02:04:36;;;;;;;3.50;3.13;;;;;;;24.44;49.60;94162.91;6161088;28;103685;-78
2022/09/17 02:07:44;;;;;;;5.30;3.80;;;;;;;24.54;50.17;94175.03;6164747;28;103387;-77
2022/09/17 02:10:52;;;;;;;7.63;3.70;;;;;;;24.63;49.63;94180.22;6164727;28;103862;-77
2022/09/17 02:13:59;;;;;;;5.37;3.50;;;;;;;24.63;49.32;94158.81;6165332;28;103607;-76
2022/09/17 02:17:09;;;;;;;6.13;3.40;;;;;;;24.68;49.12;94151.31;6159082;28;103354;-79
2022/09/17 02:20:16;;;;;;;4.50;3.97;;;;;;;24.69;49.41;94141.41;6165860;28;105159;-77
2022/09/17 02:23:31;;;;;;;5.40;4.30;;;;;;;24.63;49.80;94138.19;6149659;28;104505;-77
2022/09/17 02:26:38;;;;;;;5.17;4.23;;;;;;;24.61;49.56;94081.56;6163150;28;103283;-78
2022/09/17 02:29:44;;;;;;;4.97;4.30;;;;;;;24.57;49.59;94109.38;6160190;28;103117;-78
2022/09/17 02:32:48;;;;;;;4.37;3.97;;;;;;;24.52;49.95;94112.28;6164580;28;105932;-77
2022/09/17 02:35:53;;;;;;;5.80;4.00;;;;;;;24.32;50.08;94052.56;6164606;28;103294;-78
2022/09/17 02:39:00;;;;;;;7.47;4.20;;;;;;;24.29;50.44;94047.91;6158482;28;103645;-75
2022/09/17 02:42:14;;;;;;;7.03;4.10;;;;;;;24.34;49.84;94023.56;6165239;28;104324;-78
2022/09/17 02:45:33;;;;;;;6.37;4.20;;;;;;;24.42;50.08;94106.31;6165278;28;103584;-79
2022/09/17 02:49:15;;;;;;;4.80;3.90;;;;;;;24.49;49.86;94082.41;6164546;28;103212;-77
2022/09/17 02:52:33;;;;;;;4.60;4.00;;;;;;;24.52;50.26;94102.34;6131999;28;104025;-78
2022/09/17 02:55:42;;;;;;;6.93;4.10;;;;;;;24.60;49.71;94100.66;6142478;28;103601;-78
2022/09/17 02:58:51;;;;;;;6.40;4.40;;;;;;;24.64;49.24;94106.84;6162656;28;103619;-76
2022/09/17 03:02:01;;;;;;;5.23;3.90;;;;;;;24.63;49.29;94100.72;6157127;28;103246;-77
2022/09/17 03:05:08;;;;;;;4.40;4.00;;;;;;;24.68;49.24;94102.38;6164377;28;105318;-78
2022/09/17 03:08:15;;;;;;;5.77;4.20;;;;;;;24.68;49.24;94079.09;6164605;28;103338;-78
2022/09/17 03:11:18;;;;;;;4.30;3.90;;;;;;;24.70;49.05;94076.88;6164779;28;103219;-78
2022/09/17 03:14:21;;;;;;;5.00;3.90;;;;;;;24.64;49.32;94072.06;6157816;28;103355;-77
2022/09/17 03:17:24;;;;;;;4.53;4.10;;;;;;;24.63;49.54;94065.19;6164612;28;105945;-78
2022/09/17 03:20:27;;;;;;;4.43;4.03;;;;;;;24.56;49.27;94062.34;6164553;28;103023;-77
2022/09/17 03:23:32;;;;;;;4.37;3.60;;;;;;;24.60;49.23;94052.50;6163062;28;103529;-78
2022/09/17 03:26:36;;;;;;;4.33;3.90;;;;;;;24.67;49.17;94055.31;6146089;28;103367;-78
2022/09/17 03:29:39;;;;;;;3.57;3.27;;;;;;;24.69;49.36;94058.47;6142812;28;103935;-78
2022/09/17 03:32:42;;;;;;;4.77;3.63;;;;;;;24.59;49.78;94075.00;6162980;28;103393;-77
2022/09/17 03:35:46;;;;;;;4.57;3.83;;;;;;;24.55;49.62;94048.19;6157558;28;106206;-77
2022/09/17 03:38:54;;;;;;;6.50;4.17;;;;;;;24.58;49.49;94044.03;6156928;28;103372;-78
2022/09/17 03:41:57;;;;;;;4.63;4.10;;;;;;;24.57;48.91;94037.91;6140213;28;104672;-77
2022/09/17 03:45:00;;;;;;;5.13;4.23;;;;;;;24.58;49.19;94047.50;6140045;28;103015;-76
2022/09/17 03:48:04;;;;;;;3.87;3.57;;;;;;;24.58;49.40;94033.34;6155875;28;104376;-76
2022/09/17 03:51:07;;;;;;;5.00;4.27;;;;;;;24.64;49.48;94026.59;6163522;28;103477;-76
2022/09/17 03:54:12;;;;;;;5.80;3.63;;;;;;;24.84;49.37;94027.47;6163534;28;106324;-77
2022/09/17 03:57:15;;;;;;;14.43;3.63;;;;;;;24.74;49.06;94026.13;6163083;28;103846;-75
2022/09/17 04:00:19;;;;;;;12.00;3.73;;;;;;;24.65;49.60;94038.84;6155693;28;103061;-76
2022/09/17 04:03:22;;;;;;;5.30;4.23;;;;;;;24.61;49.32;94059.41;6161804;28;104202;-76
2022/09/17 04:06:25;;;;;;;10.30;3.90;;;;;;;24.62;49.65;94045.66;6162701;28;103514;-75
2022/09/17 04:09:30;;;;;;;5.10;3.60;;;;;;;24.66;49.77;94051.88;6158810;28;104913;-76
2022/09/17 04:12:37;;;;;;;7.23;3.67;;;;;;;24.70;49.13;94057.38;6161167;28;103971;-76
2022/09/17 04:15:40;;;;;;;6.20;3.60;;;;;;;24.62;49.08;94053.69;6162685;28;103089;-76
2022/09/17 04:18:43;;;;;;;4.97;3.13;;;;;;;24.70;48.90;94060.03;6165582;28;103227;-76
2022/09/17 04:21:46;;;;;;;4.73;3.53;;;;;;;24.70;49.58;94078.78;6159918;28;103247;-76
2022/09/17 04:24:51;;;;;;;7.17;3.93;;;;;;;24.67;49.45;94101.59;6156023;28;102744;-76
2022/09/17 04:27:54;;;;;;;10.03;3.50;;;;;;;24.60;49.62;94106.00;6149621;28;103056;-77
2022/09/17 04:30:57;;;;;;;5.20;3.07;;;;;;;24.58;49.32;94165.19;6160755;28;103445;-76
2022/09/17 04:34:00;;;;;;;7.70;3.67;;;;;;;24.65;49.75;94129.81;6160058;28;103599;-76
2022/09/17 04:37:03;;;;;;;5.00;3.20;;;;;;;24.71;49.47;94172.06;6167174;28;103155;-76
2022/09/17 04:40:09;;;;;;;11.60;4.07;;;;;;;24.74;49.94;94138.50;6166824;28;102800;-77
2022/09/17 04:43:13;;;;;;;4.43;3.00;;;;;;;24.85;49.78;94176.19;6160535;28;103009;-76
2022/09/17 04:46:16;;;;;;;10.63;4.07;;;;;;;24.76;49.57;94182.50;6162113;28;103422;-77
2022/09/17 04:49:20;;;;;;;8.97;3.23;;;;;;;24.76;49.85;94182.50;6165613;28;103253;-76
2022/09/17 04:52:23;;;;;;;5.57;3.60;;;;;;;24.75;50.78;94215.75;6165946;28;103295;-76
2022/09/17 04:55:34;;;;;;;15.40;3.60;;;;;;;24.84;50.41;94228.94;6155612;28;103863;-77
2022/09/17 04:58:37;;;;;;;8.10;3.33;;;;;;;24.87;50.80;94209.56;6166119;28;103220;-77
2022/09/17 05:01:40;;;;;;;7.27;3.30;;;;;;;24.87;51.00;94232.88;6166210;28;103154;-76
2022/09/17 05:04:43;;;;;;;11.47;3.20;;;;;;;24.87;49.57;94238.22;6166102;28;103329;-76
2022/09/17 05:07:46;;;;;;;18.37;10.53;;;;;;;24.84;50.04;94234.31;6157138;28;103268;-76
2022/09/17 05:10:51;;;;;;;14.00;6.53;;;;;;;24.76;51.54;94216.53;6161535;28;103501;-78
2022/09/17 05:13:54;;;;;;;11.23;5.37;;;;;;;24.82;50.51;94225.84;6169225;28;106789;-77
2022/09/17 05:16:57;;;;;;;20.03;5.80;;;;;;;24.89;50.44;94231.41;6166112;28;104118;-77
2022/09/17 05:20:00;;;;;;;9.83;5.20;;;;;;;24.67;50.67;94227.34;6162509;28;103445;-77
2022/09/17 05:23:04;;;;;;;9.80;5.90;;;;;;;24.29;52.02;94211.78;6155252;28;103383;-78
2022/09/17 05:26:08;;;;;;;6.23;4.60;;;;;;;24.22;52.00;94182.19;6167541;28;103555;-79
2022/09/17 05:29:11;;;;;;;7.80;4.03;;;;;;;24.13;51.82;94181.53;6163170;28;103119;-77
2022/09/17 05:32:15;;;;;;;10.17;6.17;;;;;;;24.25;51.91;94184.19;6164159;28;103008;-78
2022/09/17 05:35:19;;;;;;;15.77;6.10;;;;;;;24.20;52.00;94192.44;6165931;28;103808;-79
2022/09/17 05:38:22;;;;;;;6.53;4.67;;;;;;;23.99;52.26;94189.13;6166810;28;103499;-79
2022/09/17 05:41:27;;;;;;;5.33;3.83;;;;;;;24.02;52.51;94201.84;6159893;28;103974;-77
2022/09/17 05:44:31;;;;;;;6.63;4.17;;;;;;;24.30;51.97;94194.63;6163062;28;104352;-77
2022/09/17 05:47:35;;;;;;;18.07;9.53;;;;;;;24.21;52.25;94202.03;6166062;28;103247;-78
2022/09/17 05:50:39;;;;;;;13.93;5.50;;;;;;;24.03;52.27;94200.75;6166521;28;102738;-77
2022/09/17 05:53:42;;;;;;;9.03;5.93;;;;;;;24.23;51.50;94199.78;6157400;28;103417;-76
2022/09/17 05:56:47;;;;;;;9.67;5.50;;;;;;;24.33;51.18;94193.94;6167603;28;103376;-80
2022/09/17 05:59:50;;;;;;;7.27;5.87;;;;;;;24.37;51.43;94202.84;6167131;28;103256;-79
2022/09/17 06:02:57;;;;;;;8.57;6.97;;;;;;;24.28;51.15;94196.09;6164321;28;103257;-79
2022/09/17 06:06:00;;;;;;;9.93;8.83;;;;;;;24.37;51.28;94210.88;6163151;28;103157;-79
2022/09/17 06:09:03;;;;;;;10.73;7.40;;;;;;;24.32;51.31;94207.66;6165428;28;103550;-77
2022/09/17 06:12:08;;;;;;;8.97;6.40;;;;;;;24.32;51.67;94205.75;6166222;28;103087;-77
2022/09/17 06:15:13;;;;;;;6.50;5.53;;;;;;;24.35;51.29;94207.75;6157948;28;103061;-76
2022/09/17 06:18:16;;;;;;;6.60;5.00;;;;;;;24.36;50.96;94217.34;6165774;28;102928;-77
2022/09/17 06:21:21;;;;;;;13.97;5.73;;;;;;;24.34;51.32;94213.44;6165150;28;103262;-76
2022/09/17 06:24:24;;;;;;;9.50;5.00;;;;;;;24.35;51.48;94231.03;6165176;28;104119;-76
2022/09/17 06:27:32;;;;;;;6.83;5.00;;;;;;;24.40;50.84;94254.88;6158917;28;103378;-77
2022/09/17 06:30:36;;;;;;;11.47;6.13;;;;;;;24.40;50.75;94279.72;6164859;28;103176;-75
2022/09/17 06:33:40;;;;;;;10.23;7.13;;;;;;;24.44;50.94;94283.28;6164879;28;103042;-75
2022/09/17 06:36:43;;;;;;;10.53;8.80;;;;;;;24.42;50.75;94258.75;6162760;28;103163;-76
2022/09/17 06:39:46;;;;;;;11.63;7.60;;;;;;;24.46;50.66;94275.69;6158796;28;106180;-76
2022/09/17 06:42:50;;;;;;;8.93;7.80;;;;;;;24.46;50.70;94290.94;6165476;28;103274;-75
2022/09/17 06:45:54;;;;;;;8.60;7.27;;;;;;;24.55;50.91;94301.53;6165233;28;104149;-78
2022/09/17 06:48:57;;;;;;;8.70;6.07;;;;;;;24.58;51.09;94279.44;6158582;28;103597;-75
2022/09/17 06:52:00;;;;;;;7.70;6.10;;;;;;;24.55;50.73;94264.09;6163976;28;103127;-77
2022/09/17 06:55:04;;;;;;;8.10;6.20;;;;;;;24.61;50.86;94263.47;6165578;28;105444;-78
2022/09/17 06:58:09;;;;;;;7.50;4.60;;;;;;;24.42;52.04;94256.09;6165329;28;103527;-78
2022/09/17 07:01:13;;;;;;;5.43;4.83;;;;;;;24.43;52.00;94254.97;6159142;28;104376;-77
2022/09/17 07:04:17;;;;;;;9.07;5.90;;;;;;;24.32;52.69;94253.09;6164705;28;103096;-76
2022/09/17 07:07:20;;;;;;;8.23;5.70;;;;;;;24.06;53.32;94237.47;6165281;28;103173;-77
2022/09/17 07:10:24;;;;;;;8.67;4.43;;;;;;;23.91;53.99;94220.22;6166693;28;106566;-77
2022/09/17 07:13:28;;;;;;;6.43;4.40;;;;;;;23.85;54.55;94208.97;6158017;28;103548;-77
2022/09/17 07:16:34;;;;;;;5.33;4.30;;;;;;;24.07;53.36;94188.25;6165687;28;104989;-75
2022/09/17 07:19:37;;;;;;;7.40;4.97;;;;;;;24.28;52.48;94172.78;6165206;28;103222;-77
2022/09/17 07:22:41;;;;;;;7.80;5.77;;;;;;;24.33;53.11;94169.88;6159193;28;103261;-77
2022/09/17 07:25:44;;;;;;;8.30;4.53;;;;;;;24.30;53.77;94181.25;6164526;28;103566;-78
2022/09/17 07:28:48;;;;;;;7.17;4.77;;;;;;;24.02;54.42;94167.09;6164453;28;104010;-77
2022/09/17 07:31:52;;;;;;;7.20;3.90;;;;;;;24.29;53.35;94185.03;6165224;28;105770;-77
2022/09/17 07:34:55;;;;;;;6.00;4.40;;;;;;;24.41;53.68;94174.31;6156797;28;103286;-77
2022/09/17 07:37:58;;;;;;;5.73;4.53;;;;;;;24.49;52.90;94165.34;6163515;28;103351;-77
2022/09/17 07:41:03;;;;;;;9.17;4.70;;;;;;;24.72;51.99;94181.66;6163717;28;103301;-77
2022/09/17 07:44:08;;;;;;;7.93;3.50;;;;;;;24.77;52.30;94177.94;6163544;28;103228;-76
2022/09/17 07:47:11;;;;;;;8.30;4.03;;;;;;;24.84;52.05;94159.38;6157898;28;102719;-77
2022/09/17 07:50:15;;;;;;;6.53;4.90;;;;;;;24.90;52.28;94158.00;6163200;28;103643;-77
2022/09/17 07:53:19;;;;;;;8.63;4.80;;;;;;;24.90;51.78;94160.69;6167283;28;103317;-78
2022/09/17 07:56:22;;;;;;;5.93;3.93;;;;;;;24.90;51.86;94152.66;6165039;28;103075;-76
2022/09/17 07:59:27;;;;;;;7.33;5.23;;;;;;;24.92;51.46;94144.28;6165071;28;106326;-77
2022/09/17 08:02:30;;;;;;;7.53;4.80;;;;;;;24.92;50.98;94154.97;6168483;28;103583;-77
2022/09/17 08:05:34;;;;;;;5.83;4.33;;;;;;;24.91;50.90;94146.19;6168233;28;103500;-78
2022/09/17 08:08:38;;;;;;;5.30;3.80;;;;;;;24.90;51.21;94146.53;6160303;28;103804;-77
2022/09/17 08:11:42;;;;;;;5.13;3.60;;;;;;;24.86;50.87;94151.00;6168010;28;103507;-77
2022/09/17 08:14:59;;;;;;;3.93;3.23;;;;;;;24.90;51.17;94131.25;6167531;28;103429;-78
2022/09/17 08:18:02;;;;;;;5.03;3.97;;;;;;;24.90;51.59;94125.13;6166829;28;103180;-77
2022/09/17 08:21:07;;;;;;;5.23;3.60;;;;;;;24.99;51.76;94128.38;6160810;28;103363;-76
2022/09/17 08:24:10;;;;;;;9.77;4.30;;;;;;;25.00;51.34;94137.97;6168064;28;103413;-75
2022/09/17 08:27:13;;;;;;;6.50;3.80;;;;;;;24.96;51.46;94121.81;6167610;28;103913;-77
2022/09/17 08:30:20;;;;;;;4.60;3.60;;;;;;;24.97;51.52;94134.06;6165370;28;107735;-77
2022/09/17 08:33:24;;;;;;;5.90;3.57;;;;;;;24.95;51.55;94119.50;6164492;28;103030;-78
2022/09/17 08:36:27;;;;;;;6.30;3.23;;;;;;;24.97;51.50;94117.25;6167901;28;103270;-75
2022/09/17 08:39:30;;;;;;;6.60;3.60;;;;;;;24.95;51.77;94116.81;6166698;28;103416;-78
2022/09/17 08:42:39;;;;;;;3.47;2.90;;;;;;;24.97;51.42;94115.34;6160090;28;103410;-75
2022/09/17 08:45:44;;;;;;;6.10;3.50;;;;;;;24.94;51.73;94118.72;6167328;28;103564;-76
2022/09/17 08:48:56;;;;;;;5.70;3.20;;;;;;;24.92;51.49;94123.66;6167767;28;103520;-78
2022/09/17 08:52:22;;;;;;;10.77;8.00;;;;;;;24.89;51.96;94110.97;6168161;28;105709;-76
2022/09/17 08:55:35;;;;;;;14.27;5.90;;;;;;;24.92;52.42;94115.63;6161143;28;103376;-76
2022/09/17 08:58:45;;;;;;;22.00;7.60;;;;;;;25.00;54.74;94117.31;6164516;28;103252;-77
2022/09/17 09:02:02;;;;;;;14.87;6.70;;;;;;;24.97;56.00;94114.56;6169060;28;104263;-76
2022/09/17 09:05:14;;;;;;;21.33;5.90;;;;;;;24.94;54.40;94117.94;6164225;28;102810;-78
2022/09/17 09:08:31;;;;;;;13.10;6.10;;;;;;;24.93;55.65;94119.84;6170265;28;103391;-77
2022/09/17 09:11:35;;;;;;;18.50;6.30;;;;;;;24.92;55.43;94139.69;6144815;28;103116;-78
2022/09/17 09:14:47;;;;;;;21.30;5.63;;;;;;;24.90;54.95;94139.28;6144873;28;104664;-76
2022/09/17 09:17:53;;;;;;;10.20;4.27;;;;;;;24.83;53.56;94119.56;6137851;28;103697;-79
2022/09/17 09:21:07;;;;;;;16.20;5.93;;;;;;;24.91;54.49;94140.06;6144203;28;103456;-77
2022/09/17 09:24:22;;;;;;;22.87;7.20;;;;;;;24.91;55.70;94140.81;6144490;28;103493;-77
2022/09/17 09:27:28;;;;;;;21.90;7.73;;;;;;;24.98;56.98;94153.59;6164802;28;103287;-78
2022/09/17 09:30:46;;;;;;;19.37;5.90;;;;;;;25.00;55.94;94164.72;6165678;28;102932;-78
2022/09/17 09:33:52;;;;;;;18.83;7.37;;;;;;;24.98;56.11;94186.50;6167778;28;106448;-78
2022/09/17 09:37:05;;;;;;;20.83;7.60;;;;;;;24.95;55.62;94183.72;6166665;28;103325;-78
2022/09/17 09:40:23;;;;;;;19.90;7.07;;;;;;;24.91;54.92;94189.00;6162744;28;103863;-78
2022/09/17 09:43:36;;;;;;;16.43;7.20;;;;;;;24.90;54.90;94182.09;6167781;28;103432;-79
2022/09/17 09:47:21;;;;;;;14.23;7.30;;;;;;;24.95;56.89;94207.81;6167874;28;102875;-79
2022/09/17 09:50:35;;;;;;;12.50;8.17;;;;;;;24.91;55.08;94197.03;6137919;28;104446;-81
2022/09/17 09:54:14;;;;;;;13.07;7.13;;;;;;;24.91;55.11;94206.97;6148314;28;105009;-79
2022/09/17 09:57:23;;;;;;;16.90;8.33;;;;;;;24.92;55.64;94221.91;6168961;28;106264;-78
2022/09/17 10:00:29;;;;;;;13.17;6.80;;;;;;;24.86;54.73;94218.69;6158376;28;103135;-79
2022/09/17 10:03:36;;;;;;;8.37;5.77;;;;;;;24.86;53.99;94225.94;6160416;28;103203;-79
2022/09/17 10:06:41;;;;;;;12.67;6.17;;;;;;;24.85;54.16;94213.66;6160119;28;103074;-77
2022/09/17 10:09:46;;;;;;;7.20;4.83;;;;;;;24.71;55.60;94196.16;6157794;28;103430;-78
2022/09/17 10:12:49;;;;;;;10.20;5.60;;;;;;;24.78;54.93;94171.47;6150102;28;105250;-77
2022/09/17 10:15:53;;;;;;;9.20;4.53;;;;;;;24.56;55.53;94124.63;6139198;28;107426;-78
2022/09/17 10:19:13;;;;;;;9.40;5.30;;;;;;;24.70;55.29;94137.63;6170918;28;102661;-81
2022/09/17 10:22:26;;;;;;;8.70;5.10;;;;;;;24.70;55.36;94143.75;6166957;28;102796;-81
2022/09/17 10:25:31;;;;;;;7.50;4.67;;;;;;;24.77;55.05;94089.63;6160217;28;103739;-80
2022/09/17 10:28:50;;;;;;;8.10;4.83;;;;;;;24.77;55.53;94113.72;6167334;28;103829;-80
2022/09/17 10:31:56;;;;;;;7.27;4.53;;;;;;;24.78;55.52;94094.63;6165842;28;107591;-81
2022/09/17 10:35:03;;;;;;;4.83;3.63;;;;;;;24.76;54.21;94085.41;6165965;28;103694;-80
2022/09/17 10:38:27;;;;;;;6.37;2.87;;;;;;;24.70;54.69;94100.94;6160399;28;103436;-79
2022/09/17 10:41:30;;;;;;;6.80;3.40;;;;;;;24.68;54.63;94103.16;6166892;28;102948;-78
2022/09/17 10:44:36;;;;;;;5.17;2.80;;;;;;;24.67;54.67;94074.84;6166997;28;104535;-80
2022/09/17 10:47:44;;;;;;;3.93;2.77;;;;;;;24.70;54.56;94054.69;6157950;28;106095;-81
2022/09/17 10:50:49;;;;;;;3.83;2.87;;;;;;;24.70;54.14;94014.56;6164705;28;104508;-77
2022/09/17 10:54:32;;;;;;;5.27;3.00;;;;;;;24.76;55.67;94026.53;6165027;28;103447;-78
2022/09/17 10:57:51;;;;;;;8.70;3.63;;;;;;;24.81;57.91;94023.59;6164930;28;102487;-79
2022/09/17 11:01:07;;;;;;;6.40;2.70;;;;;;;24.58;56.43;94038.69;6158876;28;104670;-77
2022/09/17 11:04:26;;;;;;;5.97;2.53;;;;;;;24.18;57.18;94028.91;6163902;28;105139;-79
2022/09/17 11:07:44;;;;;;;6.40;3.00;;;;;;;24.17;56.52;94008.66;6161331;28;104761;-77
2022/09/17 11:10:58;;;;;;;6.37;2.67;;;;;;;24.45;55.49;94030.75;6149730;28;104240;-78
2022/09/17 11:14:16;;;;;;;7.93;2.60;;;;;;;24.45;54.54;94028.06;6159540;28;103277;-77
2022/09/17 11:17:50;;;;;;;6.50;2.30;;;;;;;24.58;54.46;94050.16;6160687;28;106697;-79
2022/09/17 11:21:04;;;;;;;3.47;2.00;;;;;;;24.62;54.19;94029.63;6137897;28;102941;-78
2022/09/17 11:24:33;;;;;;;8.17;1.90;;;;;;;24.68;53.51;94052.34;6159700;28;103475;-80
2022/09/17 11:27:52;;;;;;;4.60;2.13;;;;;;;24.71;53.41;94042.88;6162166;28;103593;-80
2022/09/17 11:31:10;;;;;;;2.50;1.70;;;;;;;24.68;52.54;94038.97;6156705;28;104735;-80
2022/09/17 11:34:49;;;;;;;1.93;1.50;;;;;;;24.67;52.77;94031.25;6154656;28;103517;-83
2022/09/17 11:37:56;;;;;;;1.70;1.50;;;;;;;24.71;52.51;94053.56;6148470;28;103241;-79
2022/09/17 11:41:06;;;;;;;2.90;1.70;;;;;;;24.77;52.35;94062.88;6159360;28;105909;-78
2022/09/17 11:44:17;;;;;;;2.53;2.00;;;;;;;24.84;52.41;94092.47;6160196;28;102742;-78
2022/09/17 11:47:26;;;;;;;2.80;2.10;;;;;;;24.89;52.51;94086.88;6160289;28;103411;-80
2022/09/17 11:50:36;;;;;;;2.20;2.00;;;;;;;24.86;52.40;94060.78;6171722;28;103071;-80
2022/09/17 11:53:46;;;;;;;2.73;2.30;;;;;;;24.93;52.58;94055.59;6172765;28;105274;-80
2022/09/17 11:56:52;;;;;;;6.33;2.43;;;;;;;24.93;52.80;94077.00;6160374;28;106193;-81
2022/09/17 12:00:22;;;;;;;3.33;2.80;;;;;;;24.94;52.63;94041.09;6172861;28;104152;-81
2022/09/17 12:03:33;;;;;;;3.33;2.60;;;;;;;24.94;52.88;94059.06;6159210;28;105610;-80
2022/09/17 12:06:43;;;;;;;4.47;3.67;;;;;;;24.93;52.69;94049.47;6159076;28;103382;-82
2022/09/17 12:09:53;;;;;;;4.77;3.80;;;;;;;24.91;52.96;94063.22;6152383;28;104027;-81
2022/09/17 12:13:05;;;;;;;4.27;3.90;;;;;;;24.93;52.95;94054.84;6168630;28;103508;-81
2022/09/17 12:16:20;;;;;;;4.33;3.93;;;;;;;24.92;53.21;94047.94;6155430;28;103507;-80
2022/09/17 12:19:28;;;;;;;5.20;4.33;;;;;;;24.93;53.86;94060.97;6152833;28;107350;-80
2022/09/17 12:22:35;;;;;;;6.20;4.73;;;;;;;24.88;53.68;94047.84;6163096;28;105978;-79
2022/09/17 12:25:49;;;;;;;7.47;5.27;;;;;;;24.92;54.01;94059.41;6162618;28;103287;-80
2022/09/17 12:29:03;;;;;;;7.23;6.33;;;;;;;24.95;53.76;94064.06;6162558;28;106317;-82
2022/09/17 12:32:34;;;;;;;7.47;6.40;;;;;;;24.91;54.41;94043.69;6152274;28;103521;-81
2022/09/17 12:36:10;;;;;;;7.80;7.00;;;;;;;24.90;54.03;94037.56;6158990;28;103769;-80
2022/09/17 12:39:45;;;;;;;5.87;5.30;;;;;;;24.88;54.38;94045.19;6112074;28;103880;-80
2022/09/17 12:43:05;;;;;;;7.63;6.00;;;;;;;24.88;54.07;94031.78;6144605;28;104132;-80
2022/09/17 12:46:24;;;;;;;6.83;5.00;;;;;;;24.90;54.24;94032.22;6152450;28;104302;-79
2022/09/17 12:49:53;;;;;;;5.40;4.80;;;;;;;24.88;53.87;94015.72;6163273;28;103795;-79
2022/09/17 12:53:11;;;;;;;5.47;4.37;;;;;;;24.81;54.06;94010.22;6164101;28;103675;-79
2022/09/17 12:56:31;;;;;;;4.83;4.43;;;;;;;24.82;54.20;94032.38;6157329;28;103065;-78
2022/09/17 12:59:42;;;;;;;7.87;4.50;;;;;;;24.84;54.11;93993.44;6160421;28;105391;-79
2022/09/17 13:02:50;;;;;;;4.47;3.90;;;;;;;24.85;54.29;94003.03;6160942;28;104019;-80
2022/09/17 13:06:22;;;;;;;6.93;5.00;;;;;;;24.87;54.55;94008.84;6145626;28;103140;-79
2022/09/17 13:09:47;;;;;;;7.23;4.43;;;;;;;24.90;54.37;94007.34;6133969;28;103577;-80
2022/09/17 13:12:55;;;;;;;4.90;3.60;;;;;;;24.85;54.40;93978.94;6166388;28;104253;-79
2022/09/17 13:16:09;;;;;;;6.10;3.87;;;;;;;24.89;54.35;94008.47;6163617;28;103959;-79
2022/09/17 13:19:31;;;;;;;5.97;4.43;;;;;;;24.89;54.61;94011.16;6153966;28;103346;-79
2022/09/17 13:22:45;;;;;;;5.13;4.10;;;;;;;24.83;53.91;94009.84;6164808;28;102760;-79
2022/09/17 13:25:52;;;;;;;4.80;3.37;;;;;;;24.82;53.53;93978.88;6153373;28;103209;-79
2022/09/17 13:28:55;;;;;;;3.73;2.90;;;;;;;24.78;53.33;93986.81;6158746;28;105008;-80
2022/09/17 13:31:58;;;;;;;3.43;2.90;;;;;;;24.73;53.32;93963.03;6165749;28;104103;-80
2022/09/17 13:35:47;;;;;;;3.00;2.70;;;;;;;24.78;53.61;93974.22;6167012;28;106320;-80
2022/09/17 13:38:52;;;;;;;3.33;3.03;;;;;;;24.81;53.82;93964.72;6164037;28;104390;-80
2022/09/17 13:42:03;;;;;;;3.83;3.43;;;;;;;24.90;53.74;93956.50;6160737;28;104583;-77
2022/09/17 13:45:10;;;;;;;7.03;3.90;;;;;;;24.91;54.01;93945.44;6148802;28;104107;-77
2022/09/17 13:48:22;;;;;;;3.97;3.20;;;;;;;24.91;53.58;93942.00;6158549;28;104008;-77
2022/09/17 13:51:58;;;;;;;4.80;3.67;;;;;;;24.91;53.33;93913.34;6155573;28;104457;-76
2022/09/17 13:55:05;;;;;;;6.00;4.20;;;;;;;24.92;53.43;93906.84;6152417;28;103538;-79
2022/09/17 13:58:25;;;;;;;7.37;4.60;;;;;;;24.89;53.43;93899.53;6162276;28;103584;-76
2022/09/17 14:01:57;;;;;;;10.80;5.53;;;;;;;24.92;53.13;93890.03;6164360;28;105213;-79
2022/09/17 14:05:35;;;;;;;9.47;6.30;;;;;;;25.03;53.34;93877.59;6160669;28;104685;-79
2022/09/17 14:08:48;;;;;;;9.00;4.70;;;;;;;24.95;52.55;93866.00;6156693;28;104370;-76
2022/09/17 14:11:53;;;;;;;8.43;5.47;;;;;;;24.94;53.33;93879.72;6161957;28;103020;-76
2022/09/17 14:14:56;;;;;;;7.47;4.90;;;;;;;24.93;52.91;93881.63;6157472;28;104398;-76
2022/09/17 14:18:01;;;;;;;8.83;4.10;;;;;;;24.92;52.68;93904.19;6165785;28;103671;-76
2022/09/17 14:21:15;;;;;;;7.00;4.03;;;;;;;24.87;52.38;93898.34;6154183;28;104304;-76
2022/09/17 14:24:22;;;;;;;5.30;3.27;;;;;;;24.84;52.46;93883.72;6165220;28;103311;-77
2022/09/17 14:27:44;;;;;;;4.10;2.23;;;;;;;24.75;52.17;93889.31;6156679;28;103607;-76
2022/09/17 14:30:47;;;;;;;4.97;2.90;;;;;;;24.69;52.54;93879.22;6150620;28;105619;-76
2022/09/17 14:34:30;;;;;;;3.13;2.60;;;;;;;24.76;52.60;93895.44;6162897;28;105185;-77
2022/09/17 14:37:35;;;;;;;4.33;2.40;;;;;;;24.78;52.48;93872.53;6151842;28;103336;-77
2022/09/17 14:40:44;;;;;;;4.30;2.90;;;;;;;24.90;52.36;93871.63;6157294;28;103229;-76